createdAt,value
2023-03-20T00:00:51.019Z,32.15
2023-03-20T00:04:51.277Z,32.17
2023-03-20T00:08:51.307Z,32.15
2023-03-20T00:12:51.451Z,32.17
2023-03-20T00:16:51.622Z,32.22
2023-03-20T00:20:51.728Z,32.24
2023-03-20T00:24:51.935Z,32.22
2023-03-20T00:28:52.156Z,32.22
2023-03-20T00:32:52.354Z,32.25
2023-03-20T00:36:52.470Z,32.25
2023-03-20T00:40:52.652Z,32.25
2023-03-20T00:44:52.859Z,32.25
2023-03-20T00:48:53.041Z,32.26
2023-03-20T00:52:53.246Z,32.24
2023-03-20T00:56:53.428Z,32.29
2023-03-20T01:00:53.643Z,32.27
2023-03-20T01:04:53.818Z,32.27
2023-03-20T01:08:53.996Z,32.26
2023-03-20T01:12:54.149Z,32.25
2023-03-20T01:16:54.490Z,32.26
2023-03-20T01:20:54.578Z,32.29
2023-03-20T01:24:54.747Z,32.29
2023-03-20T01:28:54.957Z,32.30
2023-03-20T01:32:55.202Z,32.30
2023-03-20T01:36:55.355Z,32.31
2023-03-20T01:40:55.573Z,32.30
2023-03-20T01:44:55.814Z,32.33
2023-03-20T01:48:55.999Z,32.34
2023-03-20T01:52:56.213Z,32.32
2023-03-20T01:56:56.447Z,32.29
2023-03-20T02:00:56.708Z,32.32
2023-03-20T02:04:56.642Z,32.34
2023-03-20T02:08:56.574Z,32.36
2023-03-20T02:12:56.527Z,32.35
2023-03-20T02:16:56.580Z,32.36
2023-03-20T02:20:56.487Z,32.36
2023-03-20T02:24:56.439Z,32.38
2023-03-20T02:28:56.406Z,32.41
2023-03-20T02:32:56.574Z,32.37
2023-03-20T02:36:56.333Z,32.38
2023-03-20T02:40:56.311Z,32.41
2023-03-20T02:44:56.352Z,32.42
2023-03-20T02:48:56.367Z,32.39
2023-03-20T02:52:56.351Z,32.35
2023-03-20T02:56:56.256Z,32.41
2023-03-20T03:00:56.268Z,32.46
2023-03-20T03:04:56.210Z,32.48
2023-03-20T03:08:56.209Z,32.48
2023-03-20T03:12:56.147Z,32.45
2023-03-20T03:16:56.137Z,32.45
2023-03-20T03:20:56.068Z,32.41
2023-03-20T03:24:56.254Z,32.48
2023-03-20T03:28:56.116Z,32.49
2023-03-20T03:32:56.133Z,32.49
2023-03-20T03:36:56.063Z,32.47
2023-03-20T03:40:55.991Z,32.51
2023-03-20T03:44:55.985Z,32.50
2023-03-20T03:48:55.942Z,32.51
2023-03-20T03:52:55.923Z,32.54
2023-03-20T03:56:55.889Z,32.49
2023-03-20T04:00:55.847Z,32.53
2023-03-20T04:04:56.020Z,32.56
2023-03-20T04:08:55.876Z,32.52
2023-03-20T04:12:55.816Z,32.54
2023-03-20T04:16:55.804Z,32.54
2023-03-20T04:20:55.763Z,32.58
2023-03-20T04:24:55.737Z,32.59
2023-03-20T04:28:55.690Z,32.59
2023-03-20T04:32:55.795Z,32.61
2023-03-20T04:36:55.647Z,32.57
2023-03-20T04:40:55.592Z,32.61
2023-03-20T04:44:55.686Z,32.64
2023-03-20T04:48:55.607Z,32.56
2023-03-20T04:52:55.580Z,32.63
2023-03-20T04:56:55.558Z,32.63
2023-03-20T05:00:55.601Z,32.63
2023-03-20T05:04:55.487Z,32.63
2023-03-20T05:08:55.471Z,32.62
2023-03-20T05:12:57.306Z,32.64
2023-03-20T05:16:55.392Z,32.67
2023-03-20T05:20:55.341Z,32.66
2023-03-20T05:24:55.567Z,32.68
2023-03-20T05:28:55.537Z,32.66
2023-03-20T05:32:55.533Z,32.68
2023-03-20T05:36:55.475Z,32.68
2023-03-20T05:40:55.414Z,32.66
2023-03-20T05:44:55.368Z,32.67
2023-03-20T05:48:55.321Z,32.99
2023-03-20T05:52:55.849Z,33.92
2023-03-20T05:56:57.236Z,35.35
2023-03-20T06:00:55.246Z,36.67
2023-03-20T06:04:55.219Z,37.10
2023-03-20T06:08:55.151Z,37.86
2023-03-20T06:12:55.152Z,39.73
2023-03-20T06:16:55.102Z,40.77
2023-03-20T06:20:55.055Z,41.45
2023-03-20T06:24:56.974Z,41.75
2023-03-20T06:28:54.997Z,42.29
2023-03-20T06:32:55.084Z,43.37
2023-03-20T06:36:55.314Z,44.02
2023-03-20T06:40:55.435Z,44.05
2023-03-20T06:44:55.820Z,44.58
2023-03-20T06:48:55.820Z,45.14
2023-03-20T06:52:55.313Z,45.67
2023-03-20T06:56:55.374Z,45.77
2023-03-20T07:00:55.220Z,46.19
2023-03-20T07:04:55.468Z,46.64
2023-03-20T07:08:55.221Z,47.15
2023-03-20T07:12:55.137Z,47.52
2023-03-20T07:16:55.194Z,47.86
2023-03-20T07:20:55.090Z,46.32
2023-03-20T07:24:55.025Z,46.77
2023-03-20T07:28:55.341Z,47.50
2023-03-20T07:32:55.072Z,48.08
2023-03-20T07:36:54.933Z,48.33
2023-03-20T07:40:54.893Z,48.54
2023-03-20T07:44:55.310Z,49.10
2023-03-20T07:48:55.342Z,48.93
2023-03-20T07:52:55.148Z,48.47
2023-03-20T07:56:55.337Z,48.84
2023-03-20T08:00:55.360Z,49.31
2023-03-20T08:04:55.343Z,49.73
2023-03-20T08:08:55.002Z,50.00
2023-03-20T08:12:55.342Z,50.20
2023-03-20T08:17:12.462Z,50.62
2023-03-20T08:20:55.908Z,50.74
2023-03-20T08:24:55.374Z,50.95
2023-03-20T08:28:54.840Z,51.21
2023-03-20T08:32:54.836Z,51.56
2023-03-20T08:36:54.847Z,51.93
2023-03-20T08:40:54.862Z,52.37
2023-03-20T08:44:54.699Z,51.88
2023-03-20T08:48:54.875Z,50.87
2023-03-20T08:52:54.689Z,50.18
2023-03-20T08:56:54.834Z,49.23
2023-03-20T09:00:54.975Z,49.55
2023-03-20T09:04:55.178Z,50.23
2023-03-20T09:08:55.346Z,49.93
2023-03-20T09:12:55.349Z,49.13
2023-03-20T09:16:55.277Z,47.96
2023-03-20T09:20:55.214Z,49.05
2023-03-20T09:24:55.224Z,48.16
2023-03-20T09:28:55.390Z,47.37
2023-03-20T09:32:55.194Z,47.30
2023-03-20T09:36:55.096Z,47.89
2023-03-20T09:40:55.405Z,47.99
2023-03-20T09:44:55.406Z,47.76
2023-03-20T09:48:55.005Z,47.46
2023-03-20T09:52:54.957Z,46.04
2023-03-20T09:56:54.999Z,47.34
2023-03-20T10:00:54.888Z,48.13
2023-03-20T10:04:54.961Z,48.62
2023-03-20T10:08:54.867Z,49.36
2023-03-20T10:12:54.889Z,49.58
2023-03-20T10:16:54.738Z,49.98
2023-03-20T10:20:54.705Z,50.64
2023-03-20T10:24:54.891Z,50.85
2023-03-20T10:28:54.806Z,51.20
2023-03-20T10:32:54.959Z,51.51
2023-03-20T10:36:55.401Z,51.85
2023-03-20T10:40:54.906Z,52.13
2023-03-20T10:44:54.887Z,52.20
2023-03-20T10:48:54.886Z,51.20
2023-03-20T10:52:54.762Z,51.07
2023-03-20T10:56:54.914Z,51.04
2023-03-20T11:00:54.735Z,51.04
2023-03-20T11:04:54.975Z,50.82
2023-03-20T11:08:54.652Z,50.63
2023-03-20T11:12:54.942Z,50.80
2023-03-20T11:16:54.628Z,50.28
2023-03-20T11:20:54.748Z,50.27
2023-03-20T11:24:54.936Z,50.43
2023-03-20T11:28:54.715Z,50.37
2023-03-20T11:32:54.988Z,50.63
2023-03-20T11:37:08.733Z,50.30
2023-03-20T11:40:55.951Z,49.98
2023-03-20T11:44:54.773Z,48.78
2023-03-20T11:48:54.932Z,49.15
2023-03-20T11:52:55.013Z,49.10
2023-03-20T11:56:55.420Z,49.21
2023-03-20T12:00:55.151Z,48.84
2023-03-20T12:04:55.137Z,49.30
2023-03-20T12:08:55.124Z,49.08
2023-03-20T12:12:55.446Z,48.89
2023-03-20T12:16:55.215Z,48.94
2023-03-20T12:20:55.452Z,48.86
2023-03-20T12:24:55.302Z,48.75
2023-03-20T12:32:55.511Z,48.72
2023-03-20T12:36:55.466Z,47.83
2023-03-20T12:40:55.177Z,48.04
2023-03-20T12:44:55.105Z,48.29
2023-03-20T12:48:55.478Z,47.57
2023-03-20T12:52:55.064Z,46.28
2023-03-20T12:56:55.023Z,46.05
2023-03-20T13:00:55.006Z,45.88
2023-03-20T13:04:54.968Z,43.75
2023-03-20T13:08:54.982Z,42.31
2023-03-20T13:12:54.906Z,41.59
2023-03-20T13:16:54.829Z,38.58
2023-03-20T13:20:54.967Z,38.79
2023-03-20T13:24:54.821Z,36.27
2023-03-20T13:28:54.803Z,36.67
2023-03-20T13:32:54.849Z,35.93
2023-03-20T13:36:54.705Z,36.57
2023-03-20T13:40:54.756Z,36.94
2023-03-20T13:44:54.658Z,37.11
2023-03-20T13:48:54.620Z,36.58
2023-03-20T13:52:54.582Z,36.56
2023-03-20T13:56:54.584Z,37.04
2023-03-20T14:00:54.569Z,37.07
2023-03-20T14:04:54.493Z,37.05
2023-03-20T14:08:54.424Z,35.98
2023-03-20T14:12:54.430Z,36.04
2023-03-20T14:16:54.393Z,36.25
2023-03-20T14:20:54.329Z,35.99
2023-03-20T14:24:54.314Z,35.77
2023-03-20T14:28:54.280Z,35.32
2023-03-20T14:32:54.500Z,35.71
2023-03-20T14:36:54.279Z,35.31
2023-03-20T14:40:54.235Z,35.14
2023-03-20T14:44:54.142Z,34.60
2023-03-20T14:48:54.142Z,35.28
2023-03-20T14:52:54.101Z,35.66
2023-03-20T14:56:54.079Z,34.44
2023-03-20T15:00:54.080Z,34.54
2023-03-20T15:04:53.959Z,34.82
2023-03-20T15:08:54.018Z,33.91
2023-03-20T15:12:54.017Z,33.70
2023-03-20T15:16:54.022Z,35.59
2023-03-20T15:20:53.886Z,36.18
2023-03-20T15:24:53.791Z,35.63
2023-03-20T15:28:53.808Z,35.43
2023-03-20T15:32:53.795Z,37.86
2023-03-20T15:36:53.746Z,38.38
2023-03-20T15:40:53.999Z,39.92
2023-03-20T15:44:53.667Z,40.17
2023-03-20T15:48:53.618Z,40.14
2023-03-20T15:52:53.573Z,40.40
2023-03-20T15:56:53.532Z,40.99
2023-03-20T16:00:53.499Z,40.83
2023-03-20T16:04:53.472Z,40.57
2023-03-20T16:08:53.405Z,40.41
2023-03-20T16:12:53.388Z,41.60
2023-03-20T16:16:53.401Z,42.06
2023-03-20T16:20:53.408Z,41.50
2023-03-20T16:24:53.409Z,41.11
2023-03-20T16:28:53.394Z,41.88
2023-03-20T16:32:53.361Z,41.43
2023-03-20T16:36:53.344Z,41.85
2023-03-20T16:40:53.347Z,41.66
2023-03-20T16:44:53.379Z,41.30
2023-03-20T16:48:53.358Z,42.24
2023-03-20T16:52:53.359Z,42.38
2023-03-20T16:56:53.376Z,42.53
2023-03-20T17:00:53.458Z,41.99
2023-03-20T17:04:53.360Z,42.29
2023-03-20T17:08:53.361Z,42.88
2023-03-20T17:12:53.398Z,42.98
2023-03-20T17:16:53.474Z,43.09
2023-03-20T17:20:53.384Z,42.59
2023-03-20T17:24:53.414Z,42.76
2023-03-20T17:28:53.406Z,43.39
2023-03-20T17:32:53.501Z,43.34
2023-03-20T17:36:53.554Z,42.83
2023-03-20T17:40:53.513Z,42.72
2023-03-20T17:44:53.518Z,43.61
2023-03-20T17:48:53.530Z,43.45
2023-03-20T17:52:53.609Z,43.07
2023-03-20T17:56:53.673Z,42.28
2023-03-20T18:00:53.839Z,42.74
2023-03-20T18:04:53.861Z,40.63
2023-03-20T18:08:53.896Z,39.68
2023-03-20T18:12:54.026Z,38.63
2023-03-20T18:16:54.227Z,37.89
2023-03-20T18:20:54.382Z,37.05
2023-03-20T18:24:54.579Z,36.48
2023-03-20T18:28:54.805Z,35.98
2023-03-20T18:32:55.046Z,35.50
2023-03-20T18:36:54.996Z,35.11
2023-03-20T18:40:54.935Z,34.91
2023-03-20T18:44:54.900Z,34.52
2023-03-20T18:48:54.854Z,34.27
2023-03-20T18:52:54.859Z,34.12
2023-03-20T18:56:54.789Z,33.82
2023-03-20T19:00:54.749Z,33.63
2023-03-20T19:04:54.748Z,33.31
2023-03-20T19:08:54.709Z,33.08
2023-03-20T19:12:54.639Z,32.89
2023-03-20T19:16:54.624Z,32.75
2023-03-20T19:20:54.592Z,32.61
2023-03-20T19:24:54.533Z,32.51
2023-03-20T19:28:54.513Z,32.41
2023-03-20T19:32:54.525Z,32.38
2023-03-20T19:36:54.463Z,32.23
2023-03-20T19:40:54.468Z,32.17
2023-03-20T19:44:54.423Z,32.09
2023-03-20T19:48:57.830Z,32.08
2023-03-20T19:52:54.294Z,32.12
2023-03-20T19:56:54.234Z,32.13
2023-03-20T20:00:59.183Z,32.18
2023-03-20T20:04:55.193Z,32.19
2023-03-20T20:08:54.144Z,32.17
2023-03-20T20:12:54.126Z,32.19
2023-03-20T20:16:54.124Z,32.02
2023-03-20T20:24:55.003Z,31.75
2023-03-20T20:28:53.973Z,31.65
2023-03-20T20:32:54.655Z,31.59
2023-03-20T20:40:54.875Z,31.41
2023-03-20T20:44:53.808Z,31.26
2023-03-20T20:48:53.887Z,31.19
2023-03-20T20:52:53.792Z,31.10
2023-03-20T20:56:53.984Z,31.02
2023-03-20T21:00:55.488Z,30.97
2023-03-20T21:04:54.316Z,30.88
2023-03-20T21:08:54.437Z,30.88
2023-03-20T21:12:59.486Z,30.88
2023-03-20T21:16:55.638Z,30.92
2023-03-20T21:20:54.544Z,30.94
2023-03-20T21:25:11.097Z,30.92
2023-03-20T21:28:55.599Z,30.94
2023-03-20T21:32:54.548Z,30.75
2023-03-20T21:36:54.589Z,30.62
2023-03-20T21:40:54.765Z,30.50
2023-03-20T21:45:39.051Z,30.38
2023-03-20T21:49:46.519Z,30.28
2023-03-20T21:57:53.117Z,30.20
2023-03-20T22:09:45.687Z,30.04
2023-03-20T22:17:45.643Z,29.91
2023-03-20T22:25:39.186Z,29.76
2023-03-20T22:37:46.282Z,29.58
2023-03-20T22:45:04.487Z,29.51
2023-03-20T22:48:55.349Z,29.46
2023-03-20T22:52:54.316Z,29.42
2023-03-20T22:56:54.294Z,29.42
2023-03-20T23:00:54.292Z,29.40
2023-03-20T23:04:54.267Z,29.39
2023-03-20T23:08:56.693Z,29.44
2023-03-20T23:12:54.165Z,29.52
2023-03-20T23:16:54.141Z,29.50
2023-03-20T23:20:54.113Z,29.53
2023-03-20T23:24:57.331Z,29.56
2023-03-20T23:28:55.016Z,29.55
2023-03-20T23:32:53.996Z,29.53
2023-03-20T23:36:53.928Z,29.56
2023-03-20T23:40:53.874Z,29.63
2023-03-20T23:44:57.374Z,29.67
2023-03-20T23:48:53.827Z,29.64
2023-03-20T23:53:01.350Z,29.74
2023-03-20T23:56:54.787Z,29.76
